createdAt,value
2023-08-12T05:52:45.473Z,2.70
2023-08-12T05:58:45.702Z,2.55
2023-08-12T06:01:12.835Z,2.55
2023-08-12T06:19:05.089Z,2.78
2023-08-12T08:38:40.204Z,1.65
2023-08-12T08:47:48.400Z,1.55
2023-08-12T08:50:27.356Z,1.73
2023-08-12T08:52:56.976Z,1.60
2023-08-12T08:55:24.625Z,1.52
2023-08-12T08:57:51.919Z,1.48
2023-08-12T09:00:19.885Z,1.23
2023-08-12T09:02:56.108Z,1.27
2023-08-12T09:05:24.828Z,1.50
2023-08-12T09:07:53.249Z,1.40
2023-08-12T09:10:22.766Z,1.35
2023-08-12T09:12:56.086Z,1.40
2023-08-12T09:15:23.200Z,1.25
2023-08-12T09:17:50.533Z,1.58
2023-08-12T09:20:17.834Z,1.70
2023-08-12T09:22:45.061Z,1.48
2023-08-12T09:25:12.382Z,2.20
2023-08-12T09:27:39.805Z,1.48
2023-08-12T09:30:08.985Z,1.35
2023-08-12T09:32:36.336Z,1.33
2023-08-12T09:35:07.430Z,1.27
2023-08-12T09:37:34.920Z,2.33
2023-08-12T09:40:02.612Z,1.60
2023-08-12T09:42:29.858Z,1.50
2023-08-12T09:44:58.399Z,1.40
2023-08-12T09:47:28.294Z,1.55
2023-08-12T09:49:56.402Z,1.17
2023-08-12T09:52:26.046Z,1.10
2023-08-12T09:54:57.797Z,1.42
2023-08-12T09:57:29.979Z,1.50
2023-08-12T10:02:26.672Z,1.73
2023-08-12T10:04:57.632Z,1.30
2023-08-12T10:07:26.220Z,1.55
2023-08-12T10:09:54.924Z,1.98
2023-08-12T10:12:22.841Z,1.50
2023-08-12T10:14:50.170Z,1.23
2023-08-12T10:17:26.440Z,1.20
2023-08-12T10:19:59.202Z,1.42
2023-08-12T10:22:31.792Z,1.60
2023-08-12T10:25:00.734Z,1.40
2023-08-12T10:27:28.832Z,2.72
2023-08-12T10:30:04.124Z,1.38
2023-08-12T10:32:33.114Z,1.17
2023-08-12T10:35:00.805Z,1.20
2023-08-12T10:37:32.220Z,1.50
2023-08-12T10:39:59.298Z,1.23
2023-08-12T10:42:45.720Z,1.40
2023-08-12T10:45:15.556Z,1.23
2023-08-12T10:47:47.637Z,1.30
2023-08-12T10:50:23.594Z,1.60
2023-08-12T10:52:55.095Z,1.23
2023-08-12T10:55:24.454Z,1.13
2023-08-12T10:57:57.069Z,1.20
2023-08-12T11:00:31.784Z,1.58
2023-08-12T11:02:59.475Z,1.40
2023-08-12T11:05:38.366Z,1.35
2023-08-12T11:08:07.469Z,1.30
2023-08-12T11:10:36.472Z,1.27
2023-08-12T11:13:04.768Z,1.23
2023-08-12T11:15:42.880Z,1.48
2023-08-12T11:18:11.013Z,1.40
2023-08-12T11:20:39.347Z,1.50
2023-08-12T11:23:08.105Z,1.30
2023-08-12T11:25:36.445Z,1.35
2023-08-12T11:28:06.215Z,1.23
2023-08-12T11:30:33.505Z,1.95
2023-08-12T11:33:02.597Z,1.52
2023-08-12T11:35:31.034Z,1.75
2023-08-12T11:37:59.503Z,1.40
2023-08-12T11:40:30.441Z,1.23
2023-08-12T11:42:57.750Z,1.52
2023-08-12T11:45:27.319Z,1.40
2023-08-12T11:47:55.381Z,1.30
2023-08-12T11:50:28.422Z,1.08
2023-08-12T11:52:57.531Z,1.35
2023-08-12T11:55:25.871Z,1.40
2023-08-12T11:57:53.838Z,1.33
2023-08-12T12:00:21.574Z,1.10
2023-08-12T12:02:56.983Z,1.02
2023-08-12T12:05:31.308Z,1.25
2023-08-12T12:07:59.961Z,1.20
2023-08-12T12:10:36.844Z,1.27
2023-08-12T12:13:05.629Z,1.40
2023-08-12T12:15:39.268Z,1.20
2023-08-12T12:18:14.487Z,1.63
2023-08-12T12:20:58.621Z,1.20
2023-08-12T12:23:34.760Z,1.35
2023-08-12T12:26:03.316Z,1.23
2023-08-12T12:28:30.849Z,1.23
2023-08-12T12:30:58.142Z,1.40
2023-08-12T12:33:25.378Z,1.23
2023-08-12T12:35:58.897Z,1.33
2023-08-12T12:38:28.241Z,1.52
2023-08-12T12:40:55.423Z,1.50
2023-08-12T12:43:22.489Z,1.33
2023-08-12T12:45:49.560Z,1.30
2023-08-12T12:48:16.741Z,1.23
2023-08-12T12:50:43.950Z,1.75
2023-08-12T12:53:11.101Z,1.25
2023-08-12T12:55:38.298Z,1.23
2023-08-12T12:58:05.320Z,1.10
2023-08-12T13:00:32.366Z,1.45
2023-08-12T13:02:59.610Z,1.13
2023-08-12T13:05:26.856Z,1.50
2023-08-12T13:07:54.024Z,1.38
2023-08-12T13:10:21.341Z,1.48
2023-08-12T13:12:48.345Z,1.00
2023-08-12T13:15:15.633Z,1.40
2023-08-12T13:17:43.009Z,1.20
2023-08-12T13:20:11.081Z,1.70
2023-08-12T13:22:38.183Z,1.30
2023-08-12T13:25:05.761Z,1.35
2023-08-12T13:27:33.156Z,1.02
2023-08-12T13:30:00.269Z,2.05
2023-08-12T13:32:27.373Z,1.70
2023-08-12T13:34:54.904Z,1.42
2023-08-12T13:37:21.957Z,1.58
2023-08-12T13:39:49.049Z,1.90
2023-08-12T13:42:16.193Z,1.13
2023-08-12T13:44:43.287Z,1.30
2023-08-12T13:47:10.358Z,1.30
2023-08-12T13:49:37.429Z,1.73
2023-08-12T13:52:05.292Z,1.40
2023-08-12T13:54:32.393Z,1.25
2023-08-12T13:57:00.807Z,1.88
2023-08-12T13:59:27.910Z,1.67
2023-08-12T14:01:57.832Z,1.40
2023-08-12T14:04:25.259Z,1.40
2023-08-12T14:06:53.036Z,1.65
2023-08-12T14:09:21.231Z,1.40
2023-08-12T14:11:48.399Z,2.10
2023-08-12T14:14:15.954Z,1.30
2023-08-12T14:16:43.043Z,1.45
2023-08-12T14:19:10.216Z,2.30
2023-08-12T14:21:37.251Z,1.63
2023-08-12T14:24:04.803Z,1.65
2023-08-12T14:26:31.869Z,3.88
2023-08-12T14:28:58.910Z,1.98
2023-08-12T14:31:26.028Z,2.05
2023-08-12T14:33:53.300Z,1.92
2023-08-12T14:36:20.583Z,1.55
2023-08-12T14:38:47.644Z,1.50
2023-08-12T14:41:14.725Z,1.70
2023-08-12T14:43:41.878Z,1.35
2023-08-12T14:46:09.185Z,1.92
2023-08-12T14:48:36.362Z,1.45
2023-08-12T14:51:03.496Z,1.27
2023-08-12T14:53:30.668Z,1.70
2023-08-12T14:55:57.778Z,1.65
2023-08-12T14:58:24.781Z,1.63
2023-08-12T15:00:51.995Z,1.80
2023-08-12T15:03:19.578Z,1.40
2023-08-12T15:05:46.800Z,1.73
2023-08-12T15:08:14.141Z,1.55
2023-08-12T15:10:41.323Z,1.40
2023-08-12T15:13:08.362Z,1.90
2023-08-12T15:15:35.445Z,1.60
2023-08-12T15:18:03.031Z,1.42
2023-08-12T15:20:32.222Z,1.30
2023-08-12T15:22:59.581Z,1.15
2023-08-12T15:25:26.817Z,1.50
2023-08-12T15:27:53.852Z,1.40
2023-08-12T15:30:23.463Z,1.45
2023-08-12T15:32:50.786Z,1.30
2023-08-12T15:35:17.971Z,1.48
2023-08-12T15:37:45.025Z,1.73
2023-08-12T15:40:12.759Z,1.45
2023-08-12T15:42:40.089Z,1.20
2023-08-12T15:45:08.061Z,1.60
2023-08-12T15:47:36.179Z,1.42
2023-08-12T15:50:03.626Z,1.45
2023-08-12T15:52:34.076Z,1.48
2023-08-12T15:55:01.961Z,1.90
2023-08-12T15:57:29.335Z,1.80
2023-08-12T15:59:56.573Z,1.83
2023-08-12T16:02:23.616Z,1.20
2023-08-12T16:04:50.840Z,2.13
2023-08-12T16:07:19.734Z,1.70
2023-08-12T16:09:47.121Z,1.90
2023-08-12T16:12:14.479Z,1.52
2023-08-12T16:14:41.744Z,2.25
2023-08-12T16:17:10.545Z,1.70
2023-08-12T16:19:37.825Z,1.30
2023-08-12T16:22:05.267Z,1.27
2023-08-12T16:24:32.343Z,1.33
2023-08-12T16:27:01.059Z,1.20
2023-08-12T16:29:28.731Z,1.58
2023-08-12T16:31:56.137Z,1.30
2023-08-12T16:34:23.269Z,1.45
2023-08-12T16:37:02.119Z,1.60
2023-08-12T16:39:37.825Z,1.40
2023-08-12T16:42:05.002Z,1.58
2023-08-12T16:44:32.025Z,1.35
2023-08-12T16:46:59.182Z,1.45
2023-08-12T16:49:26.314Z,1.40
2023-08-12T16:51:53.467Z,1.50
2023-08-12T16:54:20.528Z,1.60
2023-08-12T16:56:47.788Z,1.83
2023-08-12T16:59:15.005Z,2.00
2023-08-12T17:01:42.310Z,1.80
2023-08-12T17:04:12.814Z,1.88
2023-08-12T17:06:43.136Z,1.40
2023-08-12T17:09:16.886Z,1.60
2023-08-12T17:11:44.801Z,1.45
2023-08-12T17:14:12.213Z,1.55
2023-08-12T17:16:39.935Z,1.85
2023-08-12T17:19:07.479Z,1.80
2023-08-12T17:21:34.739Z,1.60
2023-08-12T17:24:01.845Z,2.08
2023-08-12T17:26:29.027Z,1.65
2023-08-12T17:28:56.114Z,2.00
2023-08-12T17:31:23.371Z,1.90
2023-08-12T17:33:50.514Z,1.70
2023-08-12T17:36:17.724Z,1.70
2023-08-12T17:38:44.813Z,1.80
2023-08-12T17:41:12.145Z,1.95
2023-08-12T17:43:39.696Z,2.50
2023-08-12T17:46:06.931Z,2.50
2023-08-12T17:48:34.466Z,2.40
2023-08-12T17:51:01.587Z,2.70
2023-08-12T17:53:28.654Z,5.00
2023-08-12T17:55:55.803Z,3.70
2023-08-12T17:58:22.981Z,3.05
2023-08-12T18:00:50.197Z,2.30
2023-08-12T18:03:17.630Z,1.80
2023-08-12T18:05:45.635Z,1.83
2023-08-12T18:08:13.374Z,1.92
2023-08-12T18:10:40.754Z,3.03
2023-08-12T18:13:08.097Z,3.13
2023-08-12T18:15:35.349Z,3.28
2023-08-12T18:18:03.476Z,2.88
2023-08-12T18:20:30.723Z,2.58
2023-08-12T18:22:59.347Z,2.60
2023-08-12T18:25:26.448Z,3.67
2023-08-12T18:27:53.561Z,2.97
2023-08-12T18:30:20.900Z,2.78
2023-08-12T18:32:48.819Z,1.95
2023-08-12T18:35:16.094Z,2.17
2023-08-12T18:37:43.188Z,2.40
2023-08-12T18:40:10.864Z,2.40
2023-08-12T18:42:38.404Z,1.92
2023-08-12T18:45:06.494Z,2.72
2023-08-12T18:47:34.678Z,2.35
2023-08-12T18:50:02.258Z,2.25
2023-08-12T18:52:29.600Z,2.15
2023-08-12T18:54:56.902Z,2.20
2023-08-12T18:57:25.501Z,2.40
2023-08-12T18:59:52.767Z,2.83
2023-08-12T19:02:21.281Z,2.55
2023-08-12T19:04:49.632Z,2.35
2023-08-12T19:07:17.118Z,2.50
2023-08-12T23:09:26.764Z,3.20
2023-08-12T23:11:54.003Z,3.17
2023-08-12T23:14:21.201Z,3.22
2023-08-12T23:36:44.426Z,3.35
2023-08-12T23:39:12.546Z,4.13
2023-08-12T23:41:39.768Z,3.30
2023-08-12T23:44:07.052Z,3.47
